sensor_id;sensor_type;location;lat;lon;timestamp;pressure;altitude;pressure_sealevel;temperature;humidity
70954;BME280;58618;47.490;8.736;2022-11-20T00:00:54;96199.44;;;2.71;100.00
70954;BME280;58618;47.490;8.736;2022-11-20T00:03:43;96205.88;;;2.90;100.00
70954;BME280;58618;47.490;8.736;2022-11-20T00:06:31;96204.28;;;3.01;100.00
70954;BME280;58618;47.490;8.736;2022-11-20T00:09:18;96209.59;;;3.16;100.00
70954;BME280;58618;47.490;8.736;2022-11-20T00:12:06;96203.03;;;3.20;100.00
70954;BME280;58618;47.490;8.736;2022-11-20T00:14:53;96213.91;;;3.32;100.00
70954;BME280;58618;47.490;8.736;2022-11-20T00:17:41;96214.13;;;3.47;100.00
70954;BME280;58618;47.490;8.736;2022-11-20T00:20:30;96221.34;;;3.55;100.00
70954;BME280;58618;47.490;8.736;2022-11-20T00:23:17;96221.03;;;3.68;100.00
70954;BME280;58618;47.490;8.736;2022-11-20T00:26:07;96222.66;;;3.74;100.00
70954;BME280;58618;47.490;8.736;2022-11-20T00:28:56;96216.91;;;3.84;100.00
70954;BME280;58618;47.490;8.736;2022-11-20T00:31:44;96225.50;;;4.00;100.00
70954;BME280;58618;47.490;8.736;2022-11-20T00:34:31;96221.25;;;4.05;100.00
70954;BME280;58618;47.490;8.736;2022-11-20T00:37:20;96216.44;;;4.09;100.00
70954;BME280;58618;47.490;8.736;2022-11-20T00:40:08;96218.47;;;4.07;100.00
70954;BME280;58618;47.490;8.736;2022-11-20T00:42:56;96215.66;;;4.08;100.00
70954;BME280;58618;47.490;8.736;2022-11-20T00:45:43;96221.41;;;3.99;100.00
70954;BME280;58618;47.490;8.736;2022-11-20T00:48:31;96226.53;;;3.99;100.00
70954;BME280;58618;47.490;8.736;2022-11-20T00:51:21;96226.19;;;4.12;100.00
70954;BME280;58618;47.490;8.736;2022-11-20T00:54:10;96219.81;;;4.14;100.00
70954;BME280;58618;47.490;8.736;2022-11-20T00:56:57;96232.91;;;4.23;100.00
70954;BME280;58618;47.490;8.736;2022-11-20T00:59:45;96236.00;;;4.25;100.00
70954;BME280;58618;47.490;8.736;2022-11-20T01:02:32;96233.22;;;4.27;100.00
70954;BME280;58618;47.490;8.736;2022-11-20T01:05:19;96229.34;;;4.24;100.00
70954;BME280;58618;47.490;8.736;2022-11-20T01:08:07;96233.88;;;4.17;100.00
70954;BME280;58618;47.490;8.736;2022-11-20T01:10:59;96220.47;;;4.05;100.00
70954;BME280;58618;47.490;8.736;2022-11-20T01:13:48;96231.22;;;4.07;100.00
70954;BME280;58618;47.490;8.736;2022-11-20T01:16:38;96232.75;;;4.08;100.00
70954;BME280;58618;47.490;8.736;2022-11-20T01:19:25;96235.78;;;4.05;100.00
70954;BME280;58618;47.490;8.736;2022-11-20T01:22:12;96241.50;;;4.12;100.00
70954;BME280;58618;47.490;8.736;2022-11-20T01:25:00;96239.94;;;4.11;100.00
70954;BME280;58618;47.490;8.736;2022-11-20T01:27:48;96236.38;;;4.12;100.00
70954;BME280;58618;47.490;8.736;2022-11-20T01:30:36;96246.59;;;4.12;100.00
70954;BME280;58618;47.490;8.736;2022-11-20T01:33:23;96252.00;;;4.15;100.00
70954;BME280;58618;47.490;8.736;2022-11-20T01:36:11;96248.72;;;4.20;100.00
70954;BME280;58618;47.490;8.736;2022-11-20T01:39:01;96242.66;;;4.26;100.00
70954;BME280;58618;47.490;8.736;2022-11-20T01:41:50;96246.81;;;4.32;100.00
70954;BME280;58618;47.490;8.736;2022-11-20T01:44:58;96256.59;;;4.40;100.00
70954;BME280;58618;47.490;8.736;2022-11-20T01:47:46;96254.06;;;4.40;100.00
70954;BME280;58618;47.490;8.736;2022-11-20T01:50:35;96259.75;;;4.47;100.00
70954;BME280;58618;47.490;8.736;2022-11-20T01:53:25;96252.91;;;4.53;100.00
70954;BME280;58618;47.490;8.736;2022-11-20T01:56:15;96256.31;;;4.58;100.00
70954;BME280;58618;47.490;8.736;2022-11-20T01:59:05;96255.34;;;4.64;100.00
70954;BME280;58618;47.490;8.736;2022-11-20T02:01:55;96254.84;;;4.67;100.00
70954;BME280;58618;47.490;8.736;2022-11-20T02:04:43;96255.91;;;4.72;100.00
70954;BME280;58618;47.490;8.736;2022-11-20T02:07:31;96243.69;;;4.74;100.00
70954;BME280;58618;47.490;8.736;2022-11-20T02:10:18;96250.88;;;4.82;100.00
70954;BME280;58618;47.490;8.736;2022-11-20T02:13:06;96245.88;;;4.92;100.00
70954;BME280;58618;47.490;8.736;2022-11-20T02:16:17;96247.63;;;4.86;100.00
70954;BME280;58618;47.490;8.736;2022-11-20T02:19:09;96252.06;;;4.96;100.00
70954;BME280;58618;47.490;8.736;2022-11-20T02:22:03;96254.66;;;5.01;100.00
70954;BME280;58618;47.490;8.736;2022-11-20T02:24:54;96258.50;;;5.03;100.00
70954;BME280;58618;47.490;8.736;2022-11-20T02:27:41;96264.38;;;5.04;100.00
70954;BME280;58618;47.490;8.736;2022-11-20T02:30:28;96259.28;;;5.04;100.00
70954;BME280;58618;47.490;8.736;2022-11-20T02:33:16;96257.53;;;5.09;100.00
70954;BME280;58618;47.490;8.736;2022-11-20T02:36:04;96262.91;;;5.13;100.00
70954;BME280;58618;47.490;8.736;2022-11-20T02:38:51;96258.59;;;5.14;100.00
70954;BME280;58618;47.490;8.736;2022-11-20T02:41:40;96249.13;;;5.14;100.00
70954;BME280;58618;47.490;8.736;2022-11-20T02:44:27;96252.00;;;5.18;100.00
70954;BME280;58618;47.490;8.736;2022-11-20T02:47:15;96247.66;;;5.18;100.00
70954;BME280;58618;47.490;8.736;2022-11-20T02:50:03;96250.75;;;5.25;100.00
70954;BME280;58618;47.490;8.736;2022-11-20T02:52:51;96248.19;;;5.25;100.00
70954;BME280;58618;47.490;8.736;2022-11-20T02:55:38;96255.41;;;5.28;100.00
70954;BME280;58618;47.490;8.736;2022-11-20T02:58:27;96253.34;;;5.30;100.00
70954;BME280;58618;47.490;8.736;2022-11-20T03:01:15;96251.03;;;5.29;100.00
70954;BME280;58618;47.490;8.736;2022-11-20T03:04:02;96255.41;;;5.28;100.00
70954;BME280;58618;47.490;8.736;2022-11-20T03:06:50;96253.34;;;5.30;100.00
70954;BME280;58618;47.490;8.736;2022-11-20T03:09:37;96255.13;;;5.30;100.00
70954;BME280;58618;47.490;8.736;2022-11-20T03:12:24;96252.53;;;5.25;100.00
70954;BME280;58618;47.490;8.736;2022-11-20T03:15:13;96250.25;;;5.23;100.00
70954;BME280;58618;47.490;8.736;2022-11-20T03:18:00;96254.91;;;5.31;100.00
70954;BME280;58618;47.490;8.736;2022-11-20T03:20:48;96246.69;;;5.29;100.00
70954;BME280;58618;47.490;8.736;2022-11-20T03:23:37;96251.34;;;5.32;100.00
70954;BME280;58618;47.490;8.736;2022-11-20T03:26:25;96242.16;;;5.36;100.00
70954;BME280;58618;47.490;8.736;2022-11-20T03:29:13;96240.59;;;5.35;100.00
70954;BME280;58618;47.490;8.736;2022-11-20T03:32:02;96246.22;;;5.32;100.00
70954;BME280;58618;47.490;8.736;2022-11-20T03:34:50;96249.00;;;5.31;100.00
70954;BME280;58618;47.490;8.736;2022-11-20T03:37:37;96240.81;;;5.29;100.00
70954;BME280;58618;47.490;8.736;2022-11-20T03:40:24;96246.69;;;5.29;100.00
70954;BME280;58618;47.490;8.736;2022-11-20T03:43:12;96252.56;;;5.30;100.00
70954;BME280;58618;47.490;8.736;2022-11-20T03:46:00;96255.91;;;5.30;100.00
70954;BME280;58618;47.490;8.736;2022-11-20T03:48:49;96253.84;;;5.27;100.00
70954;BME280;58618;47.490;8.736;2022-11-20T03:51:36;96257.41;;;5.26;100.00
70954;BME280;58618;47.490;8.736;2022-11-20T03:54:23;96258.94;;;5.22;100.00
70954;BME280;58618;47.490;8.736;2022-11-20T03:57:11;96265.81;;;5.22;100.00
70954;BME280;58618;47.490;8.736;2022-11-20T03:59:58;96259.94;;;5.21;100.00
70954;BME280;58618;47.490;8.736;2022-11-20T04:02:45;96261.44;;;5.17;100.00
70954;BME280;58618;47.490;8.736;2022-11-20T04:05:34;96256.84;;;5.19;100.00
70954;BME280;58618;47.490;8.736;2022-11-20T04:08:21;96254.28;;;5.19;100.00
70954;BME280;58618;47.490;8.736;2022-11-20T04:11:10;96253.56;;;5.24;100.00
70954;BME280;58618;47.490;8.736;2022-11-20T04:13:59;96258.66;;;5.24;100.00
70954;BME280;58618;47.490;8.736;2022-11-20T04:16:46;96250.47;;;5.22;100.00
70954;BME280;58618;47.490;8.736;2022-11-20T04:19:34;96260.72;;;5.22;100.00
70954;BME280;58618;47.490;8.736;2022-11-20T04:22:22;96248.66;;;5.17;100.00
70954;BME280;58618;47.490;8.736;2022-11-20T04:25:10;96253.72;;;5.12;100.00
70954;BME280;58618;47.490;8.736;2022-11-20T04:27:57;96254.66;;;5.01;100.00
70954;BME280;58618;47.490;8.736;2022-11-20T04:30:44;96252.09;;;5.01;100.00
70954;BME280;58618;47.490;8.736;2022-11-20T04:33:32;96254.63;;;4.96;100.00
70954;BME280;58618;47.490;8.736;2022-11-20T04:36:21;96258.41;;;4.93;100.00
70954;BME280;58618;47.490;8.736;2022-11-20T04:39:14;96256.69;;;4.99;100.00
70954;BME280;58618;47.490;8.736;2022-11-20T04:42:01;96260.78;;;5.00;100.00
70954;BME280;58618;47.490;8.736;2022-11-20T04:45:07;96253.66;;;5.02;100.00
70954;BME280;58618;47.490;8.736;2022-11-20T04:47:55;96245.94;;;4.97;100.00
70954;BME280;58618;47.490;8.736;2022-11-20T04:50:42;96251.66;;;4.82;100.00
70954;BME280;58618;47.490;8.736;2022-11-20T04:53:29;96249.25;;;4.71;100.00
70954;BME280;58618;47.490;8.736;2022-11-20T04:56:18;96253.44;;;4.55;100.00
70954;BME280;58618;47.490;8.736;2022-11-20T04:59:06;96255.59;;;4.41;100.00
70954;BME280;58618;47.490;8.736;2022-11-20T05:01:53;96249.22;;;4.17;100.00
70954;BME280;58618;47.490;8.736;2022-11-20T05:04:40;96247.28;;;4.07;100.00
70954;BME280;58618;47.490;8.736;2022-11-20T05:07:27;96252.53;;;3.96;100.00
70954;BME280;58618;47.490;8.736;2022-11-20T05:10:15;96255.94;;;3.85;100.00
70954;BME280;58618;47.490;8.736;2022-11-20T05:13:04;96256.88;;;3.78;100.00
70954;BME280;58618;47.490;8.736;2022-11-20T05:15:51;96253.19;;;3.69;100.00
70954;BME280;58618;47.490;8.736;2022-11-20T05:18:40;96255.34;;;3.61;100.00
70954;BME280;58618;47.490;8.736;2022-11-20T05:21:29;96255.97;;;3.51;100.00
70954;BME280;58618;47.490;8.736;2022-11-20T05:24:17;96255.84;;;3.41;100.00
70954;BME280;58618;47.490;8.736;2022-11-20T05:27:04;96255.69;;;3.31;100.00
70954;BME280;58618;47.490;8.736;2022-11-20T05:29:53;96258.31;;;3.19;100.00
70954;BME280;58618;47.490;8.736;2022-11-20T05:32:40;96268.66;;;3.13;100.00
70954;BME280;58618;47.490;8.736;2022-11-20T05:35:28;96269.84;;;3.22;100.00
70954;BME280;58618;47.490;8.736;2022-11-20T05:38:15;96270.97;;;3.31;100.00
70954;BME280;58618;47.490;8.736;2022-11-20T05:41:04;96263.88;;;3.33;100.00
70954;BME280;58618;47.490;8.736;2022-11-20T05:43:51;96273.13;;;3.39;100.00
70954;BME280;58618;47.490;8.736;2022-11-20T05:46:40;96270.50;;;3.51;100.00
70954;BME280;58618;47.490;8.736;2022-11-20T05:49:27;96267.59;;;3.59;100.00
70954;BME280;58618;47.490;8.736;2022-11-20T05:52:14;96274.38;;;3.70;100.00
70954;BME280;58618;47.490;8.736;2022-11-20T05:55:02;96269.56;;;3.73;100.00
70954;BME280;58618;47.490;8.736;2022-11-20T05:57:49;96278.66;;;3.86;100.00
70954;BME280;58618;47.490;8.736;2022-11-20T06:00:37;96277.50;;;3.94;100.00
70954;BME280;58618;47.490;8.736;2022-11-20T06:03:25;96278.03;;;3.96;100.00
70954;BME280;58618;47.490;8.736;2022-11-20T06:06:13;96280.94;;;4.04;100.00
70954;BME280;58618;47.490;8.736;2022-11-20T06:09:01;96283.84;;;4.13;100.00
70954;BME280;58618;47.490;8.736;2022-11-20T06:11:48;96283.78;;;4.08;100.00
70954;BME280;58618;47.490;8.736;2022-11-20T06:14:36;96281.41;;;4.23;100.00
70954;BME280;58618;47.490;8.736;2022-11-20T06:17:23;96294.31;;;4.33;100.00
70954;BME280;58618;47.490;8.736;2022-11-20T06:20:12;96285.75;;;4.44;100.00
70954;BME280;58618;47.490;8.736;2022-11-20T06:22:59;96288.38;;;4.49;100.00
70954;BME280;58618;47.490;8.736;2022-11-20T06:25:47;96286.94;;;4.58;100.00
70954;BME280;58618;47.490;8.736;2022-11-20T06:28:34;96289.56;;;4.63;100.00
70954;BME280;58618;47.490;8.736;2022-11-20T06:31:23;96282.41;;;4.65;100.00
70954;BME280;58618;47.490;8.736;2022-11-20T06:34:11;96288.59;;;4.70;100.00
70954;BME280;58618;47.490;8.736;2022-11-20T06:37:00;96294.78;;;4.74;100.00
70954;BME280;58618;47.490;8.736;2022-11-20T06:39:48;96301.91;;;4.50;100.00
70954;BME280;58618;47.490;8.736;2022-11-20T06:42:35;96306.13;;;4.61;100.00
70954;BME280;58618;47.490;8.736;2022-11-20T06:45:23;96299.84;;;4.47;100.00
70954;BME280;58618;47.490;8.736;2022-11-20T06:48:10;96304.81;;;4.58;100.00
70954;BME280;58618;47.490;8.736;2022-11-20T06:50:58;96297.72;;;4.65;100.00
70954;BME280;58618;47.490;8.736;2022-11-20T06:53:47;96310.28;;;4.67;100.00
70954;BME280;58618;47.490;8.736;2022-11-20T06:56:34;96301.31;;;4.64;100.00
70954;BME280;58618;47.490;8.736;2022-11-20T06:59:21;96312.00;;;4.61;100.00
70954;BME280;58618;47.490;8.736;2022-11-20T07:02:09;96299.88;;;4.74;100.00
70954;BME280;58618;47.490;8.736;2022-11-20T07:04:57;96302.00;;;4.82;100.00
70954;BME280;58618;47.490;8.736;2022-11-20T07:07:45;96301.63;;;4.95;100.00
70954;BME280;58618;47.490;8.736;2022-11-20T07:10:33;96310.88;;;5.01;100.00
70954;BME280;58618;47.490;8.736;2022-11-20T07:13:21;96309.44;;;5.10;100.00
70954;BME280;58618;47.490;8.736;2022-11-20T07:16:08;96315.34;;;4.89;100.00
70954;BME280;58618;47.490;8.736;2022-11-20T07:18:56;96316.00;;;5.01;100.00
70954;BME280;58618;47.490;8.736;2022-11-20T07:21:43;96320.81;;;4.97;100.00
70954;BME280;58618;47.490;8.736;2022-11-20T07:24:30;96337.00;;;5.08;100.00
70954;BME280;58618;47.490;8.736;2022-11-20T07:27:19;96327.66;;;5.19;100.00
70954;BME280;58618;47.490;8.736;2022-11-20T07:30:07;96329.94;;;5.15;100.00
70954;BME280;58618;47.490;8.736;2022-11-20T07:32:55;96334.41;;;5.03;100.00
70954;BME280;58618;47.490;8.736;2022-11-20T07:35:43;96335.59;;;5.17;100.00
70954;BME280;58618;47.490;8.736;2022-11-20T07:38:31;96332.03;;;5.18;100.00
70954;BME280;58618;47.490;8.736;2022-11-20T07:41:18;96336.59;;;5.16;100.00
70954;BME280;58618;47.490;8.736;2022-11-20T07:44:07;96332.38;;;5.32;100.00
70954;BME280;58618;47.490;8.736;2022-11-20T07:46:54;96339.50;;;5.57;100.00
70954;BME280;58618;47.490;8.736;2022-11-20T07:49:41;96337.97;;;5.61;100.00
70954;BME280;58618;47.490;8.736;2022-11-20T07:52:28;96329.03;;;5.90;100.00
70954;BME280;58618;47.490;8.736;2022-11-20T07:55:16;96327.34;;;6.11;100.00
70954;BME280;58618;47.490;8.736;2022-11-20T07:58:03;96326.66;;;6.25;100.00
70954;BME280;58618;47.490;8.736;2022-11-20T08:00:52;96319.22;;;6.24;100.00
70954;BME280;58618;47.490;8.736;2022-11-20T08:03:39;96328.72;;;6.23;96.97
70954;BME280;58618;47.490;8.736;2022-11-20T08:06:27;96324.66;;;6.38;98.03
70954;BME280;58618;47.490;8.736;2022-11-20T08:09:14;96328.88;;;6.64;96.54
70954;BME280;58618;47.490;8.736;2022-11-20T08:12:01;96334.56;;;6.81;96.38
70954;BME280;58618;47.490;8.736;2022-11-20T08:15:08;96338.72;;;6.97;95.60
70954;BME280;58618;47.490;8.736;2022-11-20T08:18:01;96332.31;;;7.00;92.17
70954;BME280;58618;47.490;8.736;2022-11-20T08:20:48;96334.59;;;6.91;90.37
70954;BME280;58618;47.490;8.736;2022-11-20T08:23:36;96328.47;;;6.97;91.19
70954;BME280;58618;47.490;8.736;2022-11-20T08:26:23;96326.69;;;6.98;89.65
70954;BME280;58618;47.490;8.736;2022-11-20T08:29:11;96339.78;;;7.11;89.36
70954;BME280;58618;47.490;8.736;2022-11-20T08:31:58;96335.66;;;7.10;89.19
70954;BME280;58618;47.490;8.736;2022-11-20T08:34:48;96338.75;;;7.17;89.75
70954;BME280;58618;47.490;8.736;2022-11-20T08:37:36;96330.53;;;7.15;88.27
70954;BME280;58618;47.490;8.736;2022-11-20T08:40:27;96337.22;;;7.16;88.01
70954;BME280;58618;47.490;8.736;2022-11-20T08:43:15;96344.38;;;7.04;88.20
70954;BME280;58618;47.490;8.736;2022-11-20T08:46:02;96337.13;;;6.76;89.69
70954;BME280;58618;47.490;8.736;2022-11-20T08:48:49;96343.28;;;6.75;89.81
70954;BME280;58618;47.490;8.736;2022-11-20T08:51:38;96333.75;;;6.60;90.27
70954;BME280;58618;47.490;8.736;2022-11-20T08:54:26;96333.22;;;6.63;89.87
70954;BME280;58618;47.490;8.736;2022-11-20T08:57:13;96337.66;;;6.88;90.92
70954;BME280;58618;47.490;8.736;2022-11-20T09:00:01;96340.28;;;7.08;89.86
70954;BME280;58618;47.490;8.736;2022-11-20T09:02:48;96346.97;;;7.30;88.29
70954;BME280;58618;47.490;8.736;2022-11-20T09:05:36;96344.44;;;7.45;87.08
70954;BME280;58618;47.490;8.736;2022-11-20T09:08:24;96346.47;;;7.22;85.96
70954;BME280;58618;47.490;8.736;2022-11-20T09:11:12;96342.88;;;7.24;85.87
70954;BME280;58618;47.490;8.736;2022-11-20T09:13:59;96345.94;;;7.26;87.51
70954;BME280;58618;47.490;8.736;2022-11-20T09:16:48;96325.44;;;7.26;86.20
70954;BME280;58618;47.490;8.736;2022-11-20T09:19:36;96332.63;;;7.44;83.99
70954;BME280;58618;47.490;8.736;2022-11-20T09:22:23;96313.13;;;7.58;83.18
70954;BME280;58618;47.490;8.736;2022-11-20T09:25:12;96321.09;;;7.82;84.24
70954;BME280;58618;47.490;8.736;2022-11-20T09:28:00;96319.28;;;7.92;84.10
70954;BME280;58618;47.490;8.736;2022-11-20T09:30:47;96331.56;;;8.11;81.50
70954;BME280;58618;47.490;8.736;2022-11-20T09:33:35;96331.03;;;8.19;81.24
70954;BME280;58618;47.490;8.736;2022-11-20T09:36:23;96338.22;;;8.22;81.89
70954;BME280;58618;47.490;8.736;2022-11-20T09:39:10;96324.34;;;8.18;80.58
70954;BME280;58618;47.490;8.736;2022-11-20T09:42:17;96329.50;;;8.13;80.21
70954;BME280;58618;47.490;8.736;2022-11-20T09:45:20;96323.63;;;7.97;82.82
70954;BME280;58618;47.490;8.736;2022-11-20T09:48:20;96330.56;;;7.96;81.14
70954;BME280;58618;47.490;8.736;2022-11-20T09:51:20;96331.56;;;8.00;81.56
70954;BME280;58618;47.490;8.736;2022-11-20T09:54:16;96337.47;;;8.01;78.91
70954;BME280;58618;47.490;8.736;2022-11-20T09:57:10;96342.38;;;7.97;78.80
70954;BME280;58618;47.490;8.736;2022-11-20T10:00:00;96339.81;;;7.82;81.81
70954;BME280;58618;47.490;8.736;2022-11-20T10:03:05;96343.41;;;7.96;80.92
70954;BME280;58618;47.490;8.736;2022-11-20T10:06:00;96357.25;;;8.11;81.20
70954;BME280;58618;47.490;8.736;2022-11-20T10:08:54;96339.78;;;8.07;78.90
70954;BME280;58618;47.490;8.736;2022-11-20T10:11:50;96337.38;;;8.46;78.90
70954;BME280;58618;47.490;8.736;2022-11-20T10:14:52;96330.84;;;8.79;78.21
70954;BME280;58618;47.490;8.736;2022-11-20T10:18:17;96344.78;;;9.17;77.10
70954;BME280;58618;47.490;8.736;2022-11-20T10:21:11;96341.28;;;9.42;74.97
70954;BME280;58618;47.490;8.736;2022-11-20T10:24:19;96341.53;;;9.46;72.20
70954;BME280;58618;47.490;8.736;2022-11-20T10:27:34;96344.84;;;9.51;73.19
70954;BME280;58618;47.490;8.736;2022-11-20T10:30:26;96331.00;;;9.37;71.65
70954;BME280;58618;47.490;8.736;2022-11-20T10:33:18;96339.75;;;9.36;72.25
70954;BME280;58618;47.490;8.736;2022-11-20T10:36:13;96338.25;;;9.35;73.16
70954;BME280;58618;47.490;8.736;2022-11-20T10:39:07;96346.94;;;9.44;73.00
70954;BME280;58618;47.490;8.736;2022-11-20T10:42:01;96339.97;;;9.45;70.52
70954;BME280;58618;47.490;8.736;2022-11-20T10:44:54;96338.09;;;9.55;71.96
70954;BME280;58618;47.490;8.736;2022-11-20T10:47:50;96332.59;;;9.33;70.45
70954;BME280;58618;47.490;8.736;2022-11-20T10:50:45;96326.28;;;9.10;72.92
70954;BME280;58618;47.490;8.736;2022-11-20T10:53:50;96325.97;;;9.22;74.17
70954;BME280;58618;47.490;8.736;2022-11-20T10:56:41;96331.25;;;9.02;74.45
70954;BME280;58618;47.490;8.736;2022-11-20T10:59:41;96317.75;;;9.20;72.36
70954;BME280;58618;47.490;8.736;2022-11-20T11:02:34;96322.84;;;9.30;75.21
70954;BME280;58618;47.490;8.736;2022-11-20T11:05:36;96323.25;;;9.42;72.69
70954;BME280;58618;47.490;8.736;2022-11-20T11:08:28;96312.84;;;9.57;72.75
70954;BME280;58618;47.490;8.736;2022-11-20T11:11:21;96318.53;;;9.54;74.37
70954;BME280;58618;47.490;8.736;2022-11-20T11:14:11;96303.69;;;9.41;71.94
70954;BME280;58618;47.490;8.736;2022-11-20T11:16:58;96306.72;;;9.48;70.62
70954;BME280;58618;47.490;8.736;2022-11-20T11:19:57;96295.28;;;9.64;71.00
70954;BME280;58618;47.490;8.736;2022-11-20T11:22:48;96304.72;;;9.45;71.31
70954;BME280;58618;47.490;8.736;2022-11-20T11:25:36;96297.06;;;9.35;72.55
70954;BME280;58618;47.490;8.736;2022-11-20T11:28:25;96246.19;;;9.22;74.52
70954;BME280;58618;47.490;8.736;2022-11-20T11:31:22;96273.56;;;9.42;71.44
70954;BME280;58618;47.490;8.736;2022-11-20T11:34:13;96278.72;;;9.42;72.17
70954;BME280;58618;47.490;8.736;2022-11-20T11:37:01;96265.44;;;9.29;71.62
70954;BME280;58618;47.490;8.736;2022-11-20T11:39:51;96269.88;;;9.53;72.16
70954;BME280;58618;47.490;8.736;2022-11-20T11:42:42;96260.59;;;9.57;72.95
70954;BME280;58618;47.490;8.736;2022-11-20T11:45:30;96265.66;;;9.67;71.94
70954;BME280;58618;47.490;8.736;2022-11-20T11:48:18;96258.72;;;9.62;72.97
70954;BME280;58618;47.490;8.736;2022-11-20T11:51:08;96249.28;;;9.53;69.91
70954;BME280;58618;47.490;8.736;2022-11-20T11:53:57;96251.72;;;9.39;74.17
70954;BME280;58618;47.490;8.736;2022-11-20T11:56:47;96243.63;;;9.22;72.37
70954;BME280;58618;47.490;8.736;2022-11-20T11:59:54;96253.28;;;9.01;73.65
70954;BME280;58618;47.490;8.736;2022-11-20T12:02:56;96244.81;;;9.01;75.39
70954;BME280;58618;47.490;8.736;2022-11-20T12:05:53;96243.56;;;8.98;75.06
70954;BME280;58618;47.490;8.736;2022-11-20T12:08:45;96242.19;;;9.06;75.32
70954;BME280;58618;47.490;8.736;2022-11-20T12:11:38;96233.19;;;9.37;73.35
70954;BME280;58618;47.490;8.736;2022-11-20T12:14:35;96223.81;;;9.51;72.03
70954;BME280;58618;47.490;8.736;2022-11-20T12:17:24;96213.75;;;9.55;70.98
70954;BME280;58618;47.490;8.736;2022-11-20T12:20:13;96209.09;;;9.81;73.93
70954;BME280;58618;47.490;8.736;2022-11-20T12:23:05;96203.31;;;9.94;71.08
70954;BME280;58618;47.490;8.736;2022-11-20T12:25:56;96206.81;;;10.03;68.45
70954;BME280;58618;47.490;8.736;2022-11-20T12:28:55;96205.25;;;10.02;69.51
70954;BME280;58618;47.490;8.736;2022-11-20T12:32:03;96201.63;;;9.79;69.49
70954;BME280;58618;47.490;8.736;2022-11-20T12:35:01;96201.75;;;9.69;72.09
70954;BME280;58618;47.490;8.736;2022-11-20T12:38:04;96203.06;;;9.66;70.92
70954;BME280;58618;47.490;8.736;2022-11-20T12:40:59;96201.19;;;9.48;70.92
70954;BME280;58618;47.490;8.736;2022-11-20T12:43:58;96190.78;;;9.35;69.47
70954;BME280;58618;47.490;8.736;2022-11-20T12:47:14;96189.91;;;9.44;69.58
70954;BME280;58618;47.490;8.736;2022-11-20T12:50:15;96169.72;;;9.56;68.57
70954;BME280;58618;47.490;8.736;2022-11-20T12:53:23;96175.06;;;9.84;70.53
70954;BME280;58618;47.490;8.736;2022-11-20T12:56:21;96180.09;;;10.18;70.07
70954;BME280;58618;47.490;8.736;2022-11-20T12:59:32;96169.94;;;10.26;69.11
70954;BME280;58618;47.490;8.736;2022-11-20T13:02:27;96176.53;;;10.13;68.22
70954;BME280;58618;47.490;8.736;2022-11-20T13:05:21;96169.69;;;10.04;67.19
70954;BME280;58618;47.490;8.736;2022-11-20T13:08:18;96173.25;;;9.84;65.78
70954;BME280;58618;47.490;8.736;2022-11-20T13:11:13;96169.03;;;9.17;65.90
70954;BME280;58618;47.490;8.736;2022-11-20T13:14:16;96167.84;;;9.09;68.26
70954;BME280;58618;47.490;8.736;2022-11-20T13:17:12;96158.97;;;8.92;68.17
70954;BME280;58618;47.490;8.736;2022-11-20T13:20:06;96162.00;;;8.99;67.33
70954;BME280;58618;47.490;8.736;2022-11-20T13:22:56;96151.94;;;9.02;69.23
70954;BME280;58618;47.490;8.736;2022-11-20T13:25:44;96154.00;;;9.00;68.52
70954;BME280;58618;47.490;8.736;2022-11-20T13:28:34;96141.53;;;8.83;68.34
70954;BME280;58618;47.490;8.736;2022-11-20T13:31:29;96148.81;;;8.76;69.03
70954;BME280;58618;47.490;8.736;2022-11-20T13:34:24;96148.63;;;8.63;70.09
70954;BME280;58618;47.490;8.736;2022-11-20T13:37:25;96157.75;;;8.45;69.35
70954;BME280;58618;47.490;8.736;2022-11-20T13:40:21;96145.00;;;8.30;70.26
70954;BME280;58618;47.490;8.736;2022-11-20T13:43:18;96153.72;;;8.29;72.24
70954;BME280;58618;47.490;8.736;2022-11-20T13:46:08;96136.28;;;8.21;70.75
70954;BME280;58618;47.490;8.736;2022-11-20T13:48:56;96138.81;;;8.26;71.11
70954;BME280;58618;47.490;8.736;2022-11-20T13:51:45;96149.03;;;8.41;72.16
70954;BME280;58618;47.490;8.736;2022-11-20T13:55:05;96134.13;;;8.43;70.98
70954;BME280;58618;47.490;8.736;2022-11-20T13:58:18;96134.34;;;8.46;70.43
70954;BME280;58618;47.490;8.736;2022-11-20T14:01:09;96140.19;;;8.57;71.20
70954;BME280;58618;47.490;8.736;2022-11-20T14:03:58;96137.66;;;8.52;71.21
70954;BME280;58618;47.490;8.736;2022-11-20T14:06:46;96130.44;;;8.54;74.75
70954;BME280;58618;47.490;8.736;2022-11-20T14:09:35;96122.38;;;8.32;75.40
70954;BME280;58618;47.490;8.736;2022-11-20T14:12:28;96132.59;;;8.42;76.27
70954;BME280;58618;47.490;8.736;2022-11-20T14:15:25;96117.44;;;8.35;74.57
70954;BME280;58618;47.490;8.736;2022-11-20T14:18:15;96106.75;;;8.18;73.93
70954;BME280;58618;47.490;8.736;2022-11-20T14:21:09;96105.53;;;8.05;75.79
70954;BME280;58618;47.490;8.736;2022-11-20T14:24:06;96105.63;;;7.90;77.55
70954;BME280;58618;47.490;8.736;2022-11-20T14:26:53;96113.94;;;7.62;76.79
70954;BME280;58618;47.490;8.736;2022-11-20T14:29:43;96114.03;;;7.42;76.85
70954;BME280;58618;47.490;8.736;2022-11-20T14:32:34;96108.69;;;7.28;77.94
70954;BME280;58618;47.490;8.736;2022-11-20T14:35:25;96101.78;;;7.13;78.71
70954;BME280;58618;47.490;8.736;2022-11-20T14:38:14;96111.53;;;7.06;79.25
70954;BME280;58618;47.490;8.736;2022-11-20T14:41:06;96111.03;;;6.99;81.56
70954;BME280;58618;47.490;8.736;2022-11-20T14:43:56;96106.44;;;6.86;81.80
70954;BME280;58618;47.490;8.736;2022-11-20T14:46:46;96105.41;;;6.72;82.84
70954;BME280;58618;47.490;8.736;2022-11-20T14:49:33;96095.69;;;6.59;84.62
70954;BME280;58618;47.490;8.736;2022-11-20T14:52:22;96096.22;;;6.61;85.28
70954;BME280;58618;47.490;8.736;2022-11-20T14:55:13;96097.47;;;6.53;88.59
70954;BME280;58618;47.490;8.736;2022-11-20T14:58:02;96097.47;;;6.33;88.55
70954;BME280;58618;47.490;8.736;2022-11-20T15:00:54;96094.91;;;6.28;89.09
70954;BME280;58618;47.490;8.736;2022-11-20T15:03:43;96092.59;;;6.26;89.05
70954;BME280;58618;47.490;8.736;2022-11-20T15:06:30;96082.09;;;6.13;91.76
70954;BME280;58618;47.490;8.736;2022-11-20T15:09:18;96086.41;;;6.02;93.11